Cuaca Aktual Bandara Mali

Waktu Pengamatan : 2021-04-10 22:00:00 WITA


NIGHT-CLEAR-CLOUDY
Cerah - berawan
Suhu Udara
26 °C
Titik Embun
24 °C

Tekanan Udara 1012 hPa
Jarak Pandang 8.0 km

Angin
Tenang
METAR Terkini : METAR WATM 101400Z 00000KT 8000 FEW020 26/24 Q1012|NOSIG=